Terminal Aerodrome Forecast
Issued by NWS

Home | Current Version | Previous Version | Text Only | Print | Product List | Glossary On
Versions: 1 2 3 4 5 6 7 8 9 10 11 12 13
724
FTUS46 KSTO 300520
TAFMHR
TAF
KMHR 300520Z 3006/0106 18008KT P6SM SCT080
     FM300700 33010KT P6SM SKC
     FM301200 34015G25KT P6SM SKC
     FM301800 34020G30KT P6SM SKC
     FM010000 35012G20KT P6SM SKC=

USA.gov is the U.S. government's official web portal to all federal, state and local government web resources and services.